sensor_id;sensor_type;location;lat;lon;timestamp;P1;durP1;ratioP1;P2;durP2;ratioP2
70132;SDS011;57495;49.922;7.966;2023-06-22T00:01:23;9.45;;;5.82;;
70132;SDS011;57495;49.922;7.966;2023-06-22T00:03:24;9.03;;;5.70;;
70132;SDS011;57495;49.922;7.966;2023-06-22T00:05:26;7.32;;;5.45;;
70132;SDS011;57495;49.922;7.966;2023-06-22T00:07:28;9.80;;;5.55;;
70132;SDS011;57495;49.922;7.966;2023-06-22T00:09:31;7.72;;;5.40;;
70132;SDS011;57495;49.922;7.966;2023-06-22T00:11:33;12.05;;;5.80;;
70132;SDS011;57495;49.922;7.966;2023-06-22T00:13:34;11.63;;;5.67;;
70132;SDS011;57495;49.922;7.966;2023-06-22T00:15:36;9.90;;;6.22;;
70132;SDS011;57495;49.922;7.966;2023-06-22T00:17:39;8.13;;;5.82;;
70132;SDS011;57495;49.922;7.966;2023-06-22T00:19:40;9.27;;;5.82;;
70132;SDS011;57495;49.922;7.966;2023-06-22T00:21:42;11.95;;;6.25;;
70132;SDS011;57495;49.922;7.966;2023-06-22T00:23:47;10.13;;;6.20;;
70132;SDS011;57495;49.922;7.966;2023-06-22T00:25:49;8.95;;;6.53;;
70132;SDS011;57495;49.922;7.966;2023-06-22T00:27:51;9.98;;;5.72;;
70132;SDS011;57495;49.922;7.966;2023-06-22T00:29:52;8.10;;;6.10;;
70132;SDS011;57495;49.922;7.966;2023-06-22T00:31:54;10.07;;;6.70;;
70132;SDS011;57495;49.922;7.966;2023-06-22T00:33:55;9.40;;;6.43;;
70132;SDS011;57495;49.922;7.966;2023-06-22T00:35:57;8.90;;;6.88;;
70132;SDS011;57495;49.922;7.966;2023-06-22T00:37:58;9.02;;;6.32;;
70132;SDS011;57495;49.922;7.966;2023-06-22T00:40:01;10.98;;;6.97;;
70132;SDS011;57495;49.922;7.966;2023-06-22T00:42:06;9.07;;;6.97;;
70132;SDS011;57495;49.922;7.966;2023-06-22T00:44:07;9.60;;;7.43;;
70132;SDS011;57495;49.922;7.966;2023-06-22T00:46:08;9.68;;;6.90;;
70132;SDS011;57495;49.922;7.966;2023-06-22T00:48:10;11.77;;;7.45;;
70132;SDS011;57495;49.922;7.966;2023-06-22T00:50:15;10.18;;;7.55;;
70132;SDS011;57495;49.922;7.966;2023-06-22T00:52:21;9.82;;;7.40;;
70132;SDS011;57495;49.922;7.966;2023-06-22T00:54:26;10.30;;;7.57;;
70132;SDS011;57495;49.922;7.966;2023-06-22T00:56:28;11.05;;;7.93;;
70132;SDS011;57495;49.922;7.966;2023-06-22T00:58:31;11.07;;;7.57;;
70132;SDS011;57495;49.922;7.966;2023-06-22T01:00:33;12.73;;;7.95;;
70132;SDS011;57495;49.922;7.966;2023-06-22T01:02:34;13.57;;;8.23;;
70132;SDS011;57495;49.922;7.966;2023-06-22T01:04:37;10.73;;;7.47;;
70132;SDS011;57495;49.922;7.966;2023-06-22T01:06:41;13.05;;;7.97;;
70132;SDS011;57495;49.922;7.966;2023-06-22T01:08:49;10.80;;;7.60;;
70132;SDS011;57495;49.922;7.966;2023-06-22T01:10:55;11.63;;;8.07;;
70132;SDS011;57495;49.922;7.966;2023-06-22T01:13:13;11.20;;;7.80;;
70132;SDS011;57495;49.922;7.966;2023-06-22T01:15:23;9.93;;;7.60;;
70132;SDS011;57495;49.922;7.966;2023-06-22T01:17:28;10.15;;;7.68;;
70132;SDS011;57495;49.922;7.966;2023-06-22T01:19:35;9.73;;;7.32;;
70132;SDS011;57495;49.922;7.966;2023-06-22T01:21:45;11.70;;;7.85;;
70132;SDS011;57495;49.922;7.966;2023-06-22T01:23:51;11.40;;;8.32;;
70132;SDS011;57495;49.922;7.966;2023-06-22T01:26:04;11.30;;;8.27;;
70132;SDS011;57495;49.922;7.966;2023-06-22T01:28:13;13.30;;;9.07;;
70132;SDS011;57495;49.922;7.966;2023-06-22T01:30:25;10.80;;;8.35;;
70132;SDS011;57495;49.922;7.966;2023-06-22T01:32:28;11.25;;;8.27;;
70132;SDS011;57495;49.922;7.966;2023-06-22T01:34:32;10.88;;;8.02;;
70132;SDS011;57495;49.922;7.966;2023-06-22T01:36:34;12.10;;;8.67;;
70132;SDS011;57495;49.922;7.966;2023-06-22T01:38:37;11.18;;;8.90;;
70132;SDS011;57495;49.922;7.966;2023-06-22T01:40:40;11.60;;;8.20;;
70132;SDS011;57495;49.922;7.966;2023-06-22T01:42:41;10.93;;;8.43;;
70132;SDS011;57495;49.922;7.966;2023-06-22T01:44:43;11.00;;;8.30;;
70132;SDS011;57495;49.922;7.966;2023-06-22T01:46:47;9.87;;;8.10;;
70132;SDS011;57495;49.922;7.966;2023-06-22T01:48:50;12.15;;;8.60;;
70132;SDS011;57495;49.922;7.966;2023-06-22T01:50:51;12.35;;;8.50;;
70132;SDS011;57495;49.922;7.966;2023-06-22T01:52:54;12.07;;;8.82;;
70132;SDS011;57495;49.922;7.966;2023-06-22T01:54:55;10.68;;;8.13;;
70132;SDS011;57495;49.922;7.966;2023-06-22T01:56:57;11.37;;;8.10;;
70132;SDS011;57495;49.922;7.966;2023-06-22T01:59:01;11.15;;;8.13;;
70132;SDS011;57495;49.922;7.966;2023-06-22T02:01:09;13.00;;;7.95;;
70132;SDS011;57495;49.922;7.966;2023-06-22T02:03:14;10.70;;;8.02;;
70132;SDS011;57495;49.922;7.966;2023-06-22T02:05:19;12.25;;;8.40;;
70132;SDS011;57495;49.922;7.966;2023-06-22T02:07:23;12.20;;;8.13;;
70132;SDS011;57495;49.922;7.966;2023-06-22T02:09:29;11.73;;;8.25;;
70132;SDS011;57495;49.922;7.966;2023-06-22T02:11:31;11.30;;;8.00;;
70132;SDS011;57495;49.922;7.966;2023-06-22T02:13:33;11.45;;;7.75;;
70132;SDS011;57495;49.922;7.966;2023-06-22T02:15:35;10.02;;;7.50;;
70132;SDS011;57495;49.922;7.966;2023-06-22T02:17:37;14.63;;;8.60;;
70132;SDS011;57495;49.922;7.966;2023-06-22T02:19:41;10.50;;;7.68;;
70132;SDS011;57495;49.922;7.966;2023-06-22T02:21:43;11.68;;;8.20;;
70132;SDS011;57495;49.922;7.966;2023-06-22T02:23:44;11.90;;;9.05;;
70132;SDS011;57495;49.922;7.966;2023-06-22T02:25:46;11.30;;;8.35;;
70132;SDS011;57495;49.922;7.966;2023-06-22T02:27:47;10.73;;;8.17;;
70132;SDS011;57495;49.922;7.966;2023-06-22T02:29:48;11.02;;;8.65;;
70132;SDS011;57495;49.922;7.966;2023-06-22T02:31:50;14.95;;;9.23;;
70132;SDS011;57495;49.922;7.966;2023-06-22T02:33:52;11.32;;;8.80;;
70132;SDS011;57495;49.922;7.966;2023-06-22T02:35:54;12.68;;;8.48;;
70132;SDS011;57495;49.922;7.966;2023-06-22T02:37:56;11.63;;;8.23;;
70132;SDS011;57495;49.922;7.966;2023-06-22T02:39:57;9.52;;;7.75;;
70132;SDS011;57495;49.922;7.966;2023-06-22T02:41:59;9.45;;;7.88;;
70132;SDS011;57495;49.922;7.966;2023-06-22T02:44:00;10.70;;;7.97;;
70132;SDS011;57495;49.922;7.966;2023-06-22T02:46:01;12.10;;;7.97;;
70132;SDS011;57495;49.922;7.966;2023-06-22T02:48:03;10.77;;;8.07;;
70132;SDS011;57495;49.922;7.966;2023-06-22T02:50:06;10.82;;;8.52;;
70132;SDS011;57495;49.922;7.966;2023-06-22T02:52:09;11.65;;;8.98;;
70132;SDS011;57495;49.922;7.966;2023-06-22T02:54:10;10.07;;;8.10;;
70132;SDS011;57495;49.922;7.966;2023-06-22T02:56:11;12.63;;;8.43;;
70132;SDS011;57495;49.922;7.966;2023-06-22T02:58:13;11.80;;;8.30;;
70132;SDS011;57495;49.922;7.966;2023-06-22T03:00:15;11.82;;;9.40;;
70132;SDS011;57495;49.922;7.966;2023-06-22T03:02:17;11.20;;;8.07;;
70132;SDS011;57495;49.922;7.966;2023-06-22T03:04:21;9.95;;;7.78;;
70132;SDS011;57495;49.922;7.966;2023-06-22T03:06:22;15.00;;;9.38;;
70132;SDS011;57495;49.922;7.966;2023-06-22T03:08:29;10.83;;;8.43;;
70132;SDS011;57495;49.922;7.966;2023-06-22T03:10:31;11.95;;;8.07;;
70132;SDS011;57495;49.922;7.966;2023-06-22T03:12:32;10.65;;;7.72;;
70132;SDS011;57495;49.922;7.966;2023-06-22T03:14:34;10.82;;;7.85;;
70132;SDS011;57495;49.922;7.966;2023-06-22T03:16:35;10.40;;;8.02;;
70132;SDS011;57495;49.922;7.966;2023-06-22T03:18:37;9.97;;;8.10;;
70132;SDS011;57495;49.922;7.966;2023-06-22T03:20:39;9.85;;;7.85;;
70132;SDS011;57495;49.922;7.966;2023-06-22T03:22:40;10.90;;;8.07;;
70132;SDS011;57495;49.922;7.966;2023-06-22T03:24:45;11.25;;;7.63;;
70132;SDS011;57495;49.922;7.966;2023-06-22T03:26:46;13.65;;;8.13;;
70132;SDS011;57495;49.922;7.966;2023-06-22T03:28:48;11.10;;;7.60;;
70132;SDS011;57495;49.922;7.966;2023-06-22T03:30:49;11.70;;;7.20;;
70132;SDS011;57495;49.922;7.966;2023-06-22T03:32:51;12.00;;;7.20;;
70132;SDS011;57495;49.922;7.966;2023-06-22T03:34:53;9.75;;;6.63;;
70132;SDS011;57495;49.922;7.966;2023-06-22T03:36:58;9.95;;;6.85;;
70132;SDS011;57495;49.922;7.966;2023-06-22T03:39:00;10.33;;;7.00;;
70132;SDS011;57495;49.922;7.966;2023-06-22T03:41:02;10.52;;;6.95;;
70132;SDS011;57495;49.922;7.966;2023-06-22T03:43:04;12.40;;;7.65;;
70132;SDS011;57495;49.922;7.966;2023-06-22T03:45:06;10.02;;;7.25;;
70132;SDS011;57495;49.922;7.966;2023-06-22T03:47:08;11.35;;;8.45;;
70132;SDS011;57495;49.922;7.966;2023-06-22T03:49:10;10.60;;;8.20;;
70132;SDS011;57495;49.922;7.966;2023-06-22T03:51:11;14.10;;;8.90;;
70132;SDS011;57495;49.922;7.966;2023-06-22T03:53:12;10.30;;;8.32;;
70132;SDS011;57495;49.922;7.966;2023-06-22T03:55:14;10.98;;;7.70;;
70132;SDS011;57495;49.922;7.966;2023-06-22T03:57:17;10.98;;;8.50;;
70132;SDS011;57495;49.922;7.966;2023-06-22T03:59:18;14.77;;;9.10;;
70132;SDS011;57495;49.922;7.966;2023-06-22T04:01:19;13.07;;;9.00;;
70132;SDS011;57495;49.922;7.966;2023-06-22T04:03:21;12.90;;;9.05;;
70132;SDS011;57495;49.922;7.966;2023-06-22T04:05:22;13.07;;;9.77;;
70132;SDS011;57495;49.922;7.966;2023-06-22T04:07:24;12.85;;;9.20;;
70132;SDS011;57495;49.922;7.966;2023-06-22T04:09:25;12.93;;;9.20;;
70132;SDS011;57495;49.922;7.966;2023-06-22T04:11:27;13.27;;;9.68;;
70132;SDS011;57495;49.922;7.966;2023-06-22T04:13:30;14.32;;;9.18;;
70132;SDS011;57495;49.922;7.966;2023-06-22T04:15:31;11.32;;;8.75;;
70132;SDS011;57495;49.922;7.966;2023-06-22T04:17:33;11.93;;;8.60;;
70132;SDS011;57495;49.922;7.966;2023-06-22T04:19:34;10.47;;;8.30;;
70132;SDS011;57495;49.922;7.966;2023-06-22T04:21:35;12.00;;;8.60;;
70132;SDS011;57495;49.922;7.966;2023-06-22T04:23:37;11.23;;;8.80;;
70132;SDS011;57495;49.922;7.966;2023-06-22T04:25:38;12.15;;;9.23;;
70132;SDS011;57495;49.922;7.966;2023-06-22T04:27:40;11.85;;;9.02;;
70132;SDS011;57495;49.922;7.966;2023-06-22T04:29:43;10.73;;;8.10;;
70132;SDS011;57495;49.922;7.966;2023-06-22T04:31:48;12.18;;;8.50;;
70132;SDS011;57495;49.922;7.966;2023-06-22T04:33:50;12.90;;;8.80;;
70132;SDS011;57495;49.922;7.966;2023-06-22T04:35:53;10.70;;;8.68;;
70132;SDS011;57495;49.922;7.966;2023-06-22T04:37:57;11.40;;;8.80;;
70132;SDS011;57495;49.922;7.966;2023-06-22T04:39:59;11.33;;;8.27;;
70132;SDS011;57495;49.922;7.966;2023-06-22T04:42:00;11.38;;;7.90;;
70132;SDS011;57495;49.922;7.966;2023-06-22T04:44:02;11.95;;;8.07;;
70132;SDS011;57495;49.922;7.966;2023-06-22T04:46:06;14.30;;;8.27;;
70132;SDS011;57495;49.922;7.966;2023-06-22T04:48:08;11.27;;;8.65;;
70132;SDS011;57495;49.922;7.966;2023-06-22T04:50:09;11.80;;;9.30;;
70132;SDS011;57495;49.922;7.966;2023-06-22T04:52:12;12.02;;;9.10;;
70132;SDS011;57495;49.922;7.966;2023-06-22T04:54:20;13.07;;;8.50;;
70132;SDS011;57495;49.922;7.966;2023-06-22T04:56:21;12.70;;;9.32;;
70132;SDS011;57495;49.922;7.966;2023-06-22T04:58:28;13.27;;;8.98;;
70132;SDS011;57495;49.922;7.966;2023-06-22T05:00:32;16.10;;;9.93;;
70132;SDS011;57495;49.922;7.966;2023-06-22T05:02:37;12.98;;;8.82;;
70132;SDS011;57495;49.922;7.966;2023-06-22T05:04:39;13.30;;;9.68;;
70132;SDS011;57495;49.922;7.966;2023-06-22T05:06:40;13.77;;;9.93;;
70132;SDS011;57495;49.922;7.966;2023-06-22T05:08:42;11.95;;;9.00;;
70132;SDS011;57495;49.922;7.966;2023-06-22T05:10:43;11.93;;;8.60;;
70132;SDS011;57495;49.922;7.966;2023-06-22T05:12:45;12.57;;;8.63;;
70132;SDS011;57495;49.922;7.966;2023-06-22T05:14:47;13.20;;;9.90;;
70132;SDS011;57495;49.922;7.966;2023-06-22T05:16:48;11.80;;;8.90;;
70132;SDS011;57495;49.922;7.966;2023-06-22T05:18:53;11.50;;;8.73;;
70132;SDS011;57495;49.922;7.966;2023-06-22T05:20:55;12.23;;;8.83;;
70132;SDS011;57495;49.922;7.966;2023-06-22T05:22:56;13.73;;;9.75;;
70132;SDS011;57495;49.922;7.966;2023-06-22T05:24:58;11.50;;;9.07;;
70132;SDS011;57495;49.922;7.966;2023-06-22T05:26:59;14.05;;;9.38;;
70132;SDS011;57495;49.922;7.966;2023-06-22T05:29:01;11.95;;;9.02;;
70132;SDS011;57495;49.922;7.966;2023-06-22T05:31:03;11.53;;;8.70;;
70132;SDS011;57495;49.922;7.966;2023-06-22T05:33:05;14.15;;;9.15;;
70132;SDS011;57495;49.922;7.966;2023-06-22T05:35:08;14.65;;;9.75;;
70132;SDS011;57495;49.922;7.966;2023-06-22T05:37:10;15.95;;;9.13;;
70132;SDS011;57495;49.922;7.966;2023-06-22T05:39:13;12.68;;;9.48;;
70132;SDS011;57495;49.922;7.966;2023-06-22T05:41:15;14.33;;;9.63;;
70132;SDS011;57495;49.922;7.966;2023-06-22T05:43:16;12.77;;;9.80;;
70132;SDS011;57495;49.922;7.966;2023-06-22T05:45:17;13.77;;;9.65;;
70132;SDS011;57495;49.922;7.966;2023-06-22T05:47:19;14.07;;;9.70;;
70132;SDS011;57495;49.922;7.966;2023-06-22T05:49:20;13.75;;;9.02;;
70132;SDS011;57495;49.922;7.966;2023-06-22T05:51:23;13.43;;;9.30;;
70132;SDS011;57495;49.922;7.966;2023-06-22T05:53:25;13.82;;;9.82;;
70132;SDS011;57495;49.922;7.966;2023-06-22T05:55:26;12.07;;;9.68;;
70132;SDS011;57495;49.922;7.966;2023-06-22T05:57:27;12.32;;;9.32;;
70132;SDS011;57495;49.922;7.966;2023-06-22T05:59:29;12.00;;;9.10;;
70132;SDS011;57495;49.922;7.966;2023-06-22T06:01:30;13.30;;;10.17;;
70132;SDS011;57495;49.922;7.966;2023-06-22T06:03:35;13.23;;;9.70;;
70132;SDS011;57495;49.922;7.966;2023-06-22T06:05:40;14.73;;;9.52;;
70132;SDS011;57495;49.922;7.966;2023-06-22T06:07:44;13.07;;;10.32;;
70132;SDS011;57495;49.922;7.966;2023-06-22T06:09:46;13.05;;;9.50;;
70132;SDS011;57495;49.922;7.966;2023-06-22T06:11:48;13.20;;;9.97;;
70132;SDS011;57495;49.922;7.966;2023-06-22T06:13:49;15.07;;;9.70;;
70132;SDS011;57495;49.922;7.966;2023-06-22T06:15:50;15.48;;;10.65;;
70132;SDS011;57495;49.922;7.966;2023-06-22T06:17:54;12.73;;;9.93;;
70132;SDS011;57495;49.922;7.966;2023-06-22T06:19:56;17.50;;;10.82;;
70132;SDS011;57495;49.922;7.966;2023-06-22T06:21:57;15.80;;;10.57;;
70132;SDS011;57495;49.922;7.966;2023-06-22T06:24:00;13.85;;;10.63;;
70132;SDS011;57495;49.922;7.966;2023-06-22T06:26:01;13.77;;;10.57;;
70132;SDS011;57495;49.922;7.966;2023-06-22T06:28:07;13.65;;;10.77;;
70132;SDS011;57495;49.922;7.966;2023-06-22T06:30:08;14.60;;;9.95;;
70132;SDS011;57495;49.922;7.966;2023-06-22T06:32:10;13.73;;;10.60;;
70132;SDS011;57495;49.922;7.966;2023-06-22T06:34:12;12.85;;;10.23;;
70132;SDS011;57495;49.922;7.966;2023-06-22T06:36:13;14.13;;;11.88;;
70132;SDS011;57495;49.922;7.966;2023-06-22T06:38:15;14.38;;;9.25;;
70132;SDS011;57495;49.922;7.966;2023-06-22T06:40:18;12.68;;;10.50;;
70132;SDS011;57495;49.922;7.966;2023-06-22T06:42:20;13.47;;;10.07;;
70132;SDS011;57495;49.922;7.966;2023-06-22T06:44:23;12.48;;;10.32;;
70132;SDS011;57495;49.922;7.966;2023-06-22T06:46:24;14.10;;;9.65;;
70132;SDS011;57495;49.922;7.966;2023-06-22T06:48:25;12.18;;;9.55;;
70132;SDS011;57495;49.922;7.966;2023-06-22T06:50:27;12.73;;;10.20;;
70132;SDS011;57495;49.922;7.966;2023-06-22T06:52:29;12.27;;;9.67;;
70132;SDS011;57495;49.922;7.966;2023-06-22T06:54:30;15.43;;;10.50;;
70132;SDS011;57495;49.922;7.966;2023-06-22T06:56:33;13.90;;;10.07;;
70132;SDS011;57495;49.922;7.966;2023-06-22T06:58:34;11.88;;;9.95;;
70132;SDS011;57495;49.922;7.966;2023-06-22T07:00:36;14.20;;;9.77;;
70132;SDS011;57495;49.922;7.966;2023-06-22T07:02:39;14.37;;;10.43;;
70132;SDS011;57495;49.922;7.966;2023-06-22T07:04:41;12.93;;;10.30;;
70132;SDS011;57495;49.922;7.966;2023-06-22T07:06:42;15.43;;;10.13;;
70132;SDS011;57495;49.922;7.966;2023-06-22T07:08:44;12.02;;;9.43;;
70132;SDS011;57495;49.922;7.966;2023-06-22T07:10:45;13.48;;;9.93;;
70132;SDS011;57495;49.922;7.966;2023-06-22T07:12:49;12.47;;;9.13;;
70132;SDS011;57495;49.922;7.966;2023-06-22T07:14:51;13.82;;;9.93;;
70132;SDS011;57495;49.922;7.966;2023-06-22T07:16:52;12.70;;;9.40;;
70132;SDS011;57495;49.922;7.966;2023-06-22T07:18:54;12.60;;;9.10;;
70132;SDS011;57495;49.922;7.966;2023-06-22T07:20:55;13.40;;;9.13;;
70132;SDS011;57495;49.922;7.966;2023-06-22T07:22:57;14.17;;;9.70;;
70132;SDS011;57495;49.922;7.966;2023-06-22T07:24:59;12.48;;;9.50;;
70132;SDS011;57495;49.922;7.966;2023-06-22T07:27:01;11.50;;;8.85;;
70132;SDS011;57495;49.922;7.966;2023-06-22T07:29:05;12.70;;;9.00;;
70132;SDS011;57495;49.922;7.966;2023-06-22T07:31:06;12.23;;;8.77;;
70132;SDS011;57495;49.922;7.966;2023-06-22T07:33:08;12.10;;;8.37;;
70132;SDS011;57495;49.922;7.966;2023-06-22T07:35:09;11.35;;;9.13;;
70132;SDS011;57495;49.922;7.966;2023-06-22T07:37:10;11.70;;;8.90;;
70132;SDS011;57495;49.922;7.966;2023-06-22T07:39:12;15.25;;;9.65;;
70132;SDS011;57495;49.922;7.966;2023-06-22T07:41:14;10.25;;;9.07;;
70132;SDS011;57495;49.922;7.966;2023-06-22T07:43:16;11.83;;;8.83;;
70132;SDS011;57495;49.922;7.966;2023-06-22T07:45:18;14.25;;;9.32;;
70132;SDS011;57495;49.922;7.966;2023-06-22T07:47:20;12.55;;;8.90;;
70132;SDS011;57495;49.922;7.966;2023-06-22T07:49:25;11.35;;;8.68;;
70132;SDS011;57495;49.922;7.966;2023-06-22T07:51:26;13.52;;;8.98;;
70132;SDS011;57495;49.922;7.966;2023-06-22T07:53:28;12.70;;;8.43;;
70132;SDS011;57495;49.922;7.966;2023-06-22T07:55:29;11.30;;;9.05;;
70132;SDS011;57495;49.922;7.966;2023-06-22T07:57:30;10.77;;;8.40;;
70132;SDS011;57495;49.922;7.966;2023-06-22T07:59:33;13.40;;;8.25;;
70132;SDS011;57495;49.922;7.966;2023-06-22T08:01:36;13.68;;;9.07;;
70132;SDS011;57495;49.922;7.966;2023-06-22T08:03:37;11.53;;;8.97;;
70132;SDS011;57495;49.922;7.966;2023-06-22T08:05:39;12.93;;;9.30;;
70132;SDS011;57495;49.922;7.966;2023-06-22T08:07:41;12.93;;;8.63;;
70132;SDS011;57495;49.922;7.966;2023-06-22T08:09:45;11.02;;;8.35;;
70132;SDS011;57495;49.922;7.966;2023-06-22T08:11:47;11.73;;;9.00;;
70132;SDS011;57495;49.922;7.966;2023-06-22T08:13:49;10.63;;;8.70;;
70132;SDS011;57495;49.922;7.966;2023-06-22T08:15:51;12.07;;;9.02;;
70132;SDS011;57495;49.922;7.966;2023-06-22T08:17:53;9.68;;;8.20;;
70132;SDS011;57495;49.922;7.966;2023-06-22T08:19:55;12.85;;;8.60;;
70132;SDS011;57495;49.922;7.966;2023-06-22T08:21:56;9.98;;;7.97;;
70132;SDS011;57495;49.922;7.966;2023-06-22T08:23:58;13.13;;;8.50;;
70132;SDS011;57495;49.922;7.966;2023-06-22T08:25:59;11.30;;;8.80;;
70132;SDS011;57495;49.922;7.966;2023-06-22T08:28:00;12.35;;;8.93;;
70132;SDS011;57495;49.922;7.966;2023-06-22T08:30:03;10.30;;;8.60;;
70132;SDS011;57495;49.922;7.966;2023-06-22T08:32:05;15.18;;;9.32;;
70132;SDS011;57495;49.922;7.966;2023-06-22T08:34:08;12.30;;;8.43;;
70132;SDS011;57495;49.922;7.966;2023-06-22T08:36:09;11.15;;;9.10;;
70132;SDS011;57495;49.922;7.966;2023-06-22T08:38:11;12.30;;;8.93;;
70132;SDS011;57495;49.922;7.966;2023-06-22T08:40:15;10.45;;;8.38;;
70132;SDS011;57495;49.922;7.966;2023-06-22T08:42:17;12.25;;;9.35;;
70132;SDS011;57495;49.922;7.966;2023-06-22T08:44:18;10.57;;;8.57;;
70132;SDS011;57495;49.922;7.966;2023-06-22T08:46:20;11.38;;;8.55;;
70132;SDS011;57495;49.922;7.966;2023-06-22T08:48:23;11.13;;;8.55;;
70132;SDS011;57495;49.922;7.966;2023-06-22T08:50:26;12.18;;;8.82;;
70132;SDS011;57495;49.922;7.966;2023-06-22T08:52:27;11.63;;;8.93;;
70132;SDS011;57495;49.922;7.966;2023-06-22T08:54:28;12.60;;;9.17;;
70132;SDS011;57495;49.922;7.966;2023-06-22T08:56:34;11.63;;;9.65;;
70132;SDS011;57495;49.922;7.966;2023-06-22T08:58:35;12.77;;;10.02;;
70132;SDS011;57495;49.922;7.966;2023-06-22T09:00:37;12.70;;;9.80;;
70132;SDS011;57495;49.922;7.966;2023-06-22T09:02:38;12.40;;;10.23;;
70132;SDS011;57495;49.922;7.966;2023-06-22T09:04:40;12.23;;;9.57;;
70132;SDS011;57495;49.922;7.966;2023-06-22T09:06:43;10.82;;;8.73;;
70132;SDS011;57495;49.922;7.966;2023-06-22T09:08:46;12.40;;;9.00;;
70132;SDS011;57495;49.922;7.966;2023-06-22T09:10:47;10.65;;;8.45;;
70132;SDS011;57495;49.922;7.966;2023-06-22T09:12:49;12.75;;;10.00;;
70132;SDS011;57495;49.922;7.966;2023-06-22T09:14:50;12.07;;;10.23;;
70132;SDS011;57495;49.922;7.966;2023-06-22T09:16:52;12.90;;;9.63;;
70132;SDS011;57495;49.922;7.966;2023-06-22T09:18:53;11.60;;;9.45;;
70132;SDS011;57495;49.922;7.966;2023-06-22T09:20:54;11.15;;;8.82;;
70132;SDS011;57495;49.922;7.966;2023-06-22T09:22:57;11.32;;;8.48;;
70132;SDS011;57495;49.922;7.966;2023-06-22T09:24:59;10.90;;;8.87;;
70132;SDS011;57495;49.922;7.966;2023-06-22T09:27:00;12.23;;;9.30;;
70132;SDS011;57495;49.922;7.966;2023-06-22T09:29:04;11.48;;;9.50;;
70132;SDS011;57495;49.922;7.966;2023-06-22T09:31:05;12.73;;;10.13;;
70132;SDS011;57495;49.922;7.966;2023-06-22T09:33:07;13.48;;;9.90;;
70132;SDS011;57495;49.922;7.966;2023-06-22T09:35:08;13.52;;;10.18;;
70132;SDS011;57495;49.922;7.966;2023-06-22T09:37:12;11.13;;;9.57;;
70132;SDS011;57495;49.922;7.966;2023-06-22T09:39:15;12.73;;;9.93;;
70132;SDS011;57495;49.922;7.966;2023-06-22T09:41:18;13.50;;;10.43;;
70132;SDS011;57495;49.922;7.966;2023-06-22T09:43:20;13.02;;;10.32;;
70132;SDS011;57495;49.922;7.966;2023-06-22T09:45:21;12.32;;;9.82;;
70132;SDS011;57495;49.922;7.966;2023-06-22T09:47:22;13.20;;;10.40;;
70132;SDS011;57495;49.922;7.966;2023-06-22T09:49:24;12.73;;;10.47;;
70132;SDS011;57495;49.922;7.966;2023-06-22T09:51:25;12.35;;;9.88;;
70132;SDS011;57495;49.922;7.966;2023-06-22T09:53:26;11.23;;;9.57;;
70132;SDS011;57495;49.922;7.966;2023-06-22T09:55:29;11.73;;;9.40;;
70132;SDS011;57495;49.922;7.966;2023-06-22T09:57:31;11.43;;;8.60;;
70132;SDS011;57495;49.922;7.966;2023-06-22T09:59:32;13.37;;;8.50;;
70132;SDS011;57495;49.922;7.966;2023-06-22T10:01:34;11.77;;;8.27;;
70132;SDS011;57495;49.922;7.966;2023-06-22T10:03:35;11.38;;;9.13;;
70132;SDS011;57495;49.922;7.966;2023-06-22T10:05:37;10.38;;;8.90;;
70132;SDS011;57495;49.922;7.966;2023-06-22T10:07:38;9.60;;;8.60;;
70132;SDS011;57495;49.922;7.966;2023-06-22T10:09:42;11.15;;;8.48;;
70132;SDS011;57495;49.922;7.966;2023-06-22T10:11:45;11.80;;;9.40;;
70132;SDS011;57495;49.922;7.966;2023-06-22T10:13:46;11.57;;;9.00;;
70132;SDS011;57495;49.922;7.966;2023-06-22T10:15:47;11.02;;;8.88;;
70132;SDS011;57495;49.922;7.966;2023-06-22T10:17:51;13.38;;;8.80;;
70132;SDS011;57495;49.922;7.966;2023-06-22T10:19:52;13.13;;;8.93;;
70132;SDS011;57495;49.922;7.966;2023-06-22T10:21:54;11.10;;;9.27;;
70132;SDS011;57495;49.922;7.966;2023-06-22T10:23:55;13.45;;;9.00;;
70132;SDS011;57495;49.922;7.966;2023-06-22T10:25:56;13.20;;;8.98;;
70132;SDS011;57495;49.922;7.966;2023-06-22T10:27:59;11.13;;;8.85;;
70132;SDS011;57495;49.922;7.966;2023-06-22T10:30:01;12.23;;;9.27;;
70132;SDS011;57495;49.922;7.966;2023-06-22T10:32:03;15.93;;;8.97;;
70132;SDS011;57495;49.922;7.966;2023-06-22T10:34:05;10.40;;;8.63;;
70132;SDS011;57495;49.922;7.966;2023-06-22T10:36:06;11.27;;;8.88;;
70132;SDS011;57495;49.922;7.966;2023-06-22T10:38:07;13.50;;;8.90;;
70132;SDS011;57495;49.922;7.966;2023-06-22T10:40:09;11.52;;;8.02;;
70132;SDS011;57495;49.922;7.966;2023-06-22T10:42:12;10.05;;;7.97;;
70132;SDS011;57495;49.922;7.966;2023-06-22T10:44:15;12.40;;;8.30;;
70132;SDS011;57495;49.922;7.966;2023-06-22T10:46:17;10.18;;;9.00;;
70132;SDS011;57495;49.922;7.966;2023-06-22T10:48:18;11.05;;;8.27;;
70132;SDS011;57495;49.922;7.966;2023-06-22T10:50:20;9.85;;;7.82;;
70132;SDS011;57495;49.922;7.966;2023-06-22T10:52:23;12.80;;;9.00;;
70132;SDS011;57495;49.922;7.966;2023-06-22T10:54:25;11.37;;;8.03;;
70132;SDS011;57495;49.922;7.966;2023-06-22T10:56:26;14.50;;;10.33;;
70132;SDS011;57495;49.922;7.966;2023-06-22T10:58:28;11.30;;;9.02;;
70132;SDS011;57495;49.922;7.966;2023-06-22T11:00:30;13.20;;;8.00;;
70132;SDS011;57495;49.922;7.966;2023-06-22T11:02:32;11.43;;;7.95;;
70132;SDS011;57495;49.922;7.966;2023-06-22T11:04:33;11.95;;;8.30;;
70132;SDS011;57495;49.922;7.966;2023-06-22T11:06:35;12.65;;;7.90;;
70132;SDS011;57495;49.922;7.966;2023-06-22T11:08:36;11.07;;;7.63;;
70132;SDS011;57495;49.922;7.966;2023-06-22T11:10:37;10.73;;;7.43;;
70132;SDS011;57495;49.922;7.966;2023-06-22T11:12:39;11.52;;;8.05;;
70132;SDS011;57495;49.922;7.966;2023-06-22T11:14:40;10.90;;;8.20;;
70132;SDS011;57495;49.922;7.966;2023-06-22T11:16:43;9.48;;;7.82;;
70132;SDS011;57495;49.922;7.966;2023-06-22T11:18:44;11.90;;;8.00;;
70132;SDS011;57495;49.922;7.966;2023-06-22T11:20:46;15.15;;;8.43;;
70132;SDS011;57495;49.922;7.966;2023-06-22T11:22:49;14.65;;;8.52;;
70132;SDS011;57495;49.922;7.966;2023-06-22T11:24:50;10.48;;;8.20;;
70132;SDS011;57495;49.922;7.966;2023-06-22T11:26:51;10.60;;;9.50;;
70132;SDS011;57495;49.922;7.966;2023-06-22T11:28:53;11.68;;;8.20;;
70132;SDS011;57495;49.922;7.966;2023-06-22T11:30:54;11.80;;;8.02;;
70132;SDS011;57495;49.922;7.966;2023-06-22T11:32:58;9.50;;;7.53;;
70132;SDS011;57495;49.922;7.966;2023-06-22T11:34:59;12.10;;;7.97;;
70132;SDS011;57495;49.922;7.966;2023-06-22T11:37:01;16.60;;;8.00;;
70132;SDS011;57495;49.922;7.966;2023-06-22T11:39:02;9.73;;;7.55;;
70132;SDS011;57495;49.922;7.966;2023-06-22T11:41:05;10.43;;;8.23;;
70132;SDS011;57495;49.922;7.966;2023-06-22T11:43:06;12.47;;;8.67;;
70132;SDS011;57495;49.922;7.966;2023-06-22T11:45:07;10.73;;;7.05;;
70132;SDS011;57495;49.922;7.966;2023-06-22T11:47:09;13.95;;;8.48;;
70132;SDS011;57495;49.922;7.966;2023-06-22T11:49:12;10.00;;;7.88;;
70132;SDS011;57495;49.922;7.966;2023-06-22T11:51:13;12.65;;;8.30;;
70132;SDS011;57495;49.922;7.966;2023-06-22T11:53:15;11.70;;;7.78;;
70132;SDS011;57495;49.922;7.966;2023-06-22T11:55:17;13.88;;;7.70;;
70132;SDS011;57495;49.922;7.966;2023-06-22T11:57:18;11.38;;;7.28;;
70132;SDS011;57495;49.922;7.966;2023-06-22T11:59:20;10.73;;;7.30;;
70132;SDS011;57495;49.922;7.966;2023-06-22T12:01:22;14.10;;;7.47;;
70132;SDS011;57495;49.922;7.966;2023-06-22T12:03:23;11.52;;;7.82;;
70132;SDS011;57495;49.922;7.966;2023-06-22T12:05:26;14.98;;;11.18;;
70132;SDS011;57495;49.922;7.966;2023-06-22T12:07:27;9.23;;;8.13;;